sensor_id;sensor_type;location;lat;lon;timestamp;temperature;humidity
22337;DHT22;14992;50.844;4.418;2022-07-29T00:01:28;21.10;99.60
22337;DHT22;14992;50.844;4.418;2022-07-29T00:04:09;21.10;99.50
22337;DHT22;14992;50.844;4.418;2022-07-29T00:07:05;21.00;99.80
22337;DHT22;14992;50.844;4.418;2022-07-29T00:09:46;21.00;99.90
22337;DHT22;14992;50.844;4.418;2022-07-29T00:12:35;20.90;99.90
22337;DHT22;14992;50.844;4.418;2022-07-29T00:15:17;21.00;99.90
22337;DHT22;14992;50.844;4.418;2022-07-29T00:18:06;20.80;99.90
22337;DHT22;14992;50.844;4.418;2022-07-29T00:20:47;20.80;99.90
22337;DHT22;14992;50.844;4.418;2022-07-29T00:23:36;20.90;99.90
22337;DHT22;14992;50.844;4.418;2022-07-29T00:26:17;20.80;99.90
22337;DHT22;14992;50.844;4.418;2022-07-29T00:29:07;20.80;99.90
22337;DHT22;14992;50.844;4.418;2022-07-29T00:32:06;20.80;99.90
22337;DHT22;14992;50.844;4.418;2022-07-29T00:35:02;20.80;99.90
22337;DHT22;14992;50.844;4.418;2022-07-29T00:38:16;20.70;99.90
22337;DHT22;14992;50.844;4.418;2022-07-29T00:41:12;20.70;99.90
22337;DHT22;14992;50.844;4.418;2022-07-29T00:43:53;20.70;99.90
22337;DHT22;14992;50.844;4.418;2022-07-29T00:46:49;20.50;99.90
22337;DHT22;14992;50.844;4.418;2022-07-29T00:49:32;20.50;99.90
22337;DHT22;14992;50.844;4.418;2022-07-29T00:52:21;20.50;99.90
22337;DHT22;14992;50.844;4.418;2022-07-29T00:55:03;20.40;99.90
22337;DHT22;14992;50.844;4.418;2022-07-29T00:57:52;20.40;99.90
22337;DHT22;14992;50.844;4.418;2022-07-29T01:00:34;20.40;99.90
22337;DHT22;14992;50.844;4.418;2022-07-29T01:03:26;20.30;99.90
22337;DHT22;14992;50.844;4.418;2022-07-29T01:06:15;20.30;99.90
22337;DHT22;14992;50.844;4.418;2022-07-29T01:08:58;20.20;99.90
22337;DHT22;14992;50.844;4.418;2022-07-29T01:11:46;20.20;99.90
22337;DHT22;14992;50.844;4.418;2022-07-29T01:14:42;20.10;99.90
22337;DHT22;14992;50.844;4.418;2022-07-29T01:17:26;20.10;99.90
22337;DHT22;14992;50.844;4.418;2022-07-29T01:20:50;20.20;99.90
22337;DHT22;14992;50.844;4.418;2022-07-29T01:24:10;20.10;99.90
22337;DHT22;14992;50.844;4.418;2022-07-29T01:26:59;20.00;99.90
22337;DHT22;14992;50.844;4.418;2022-07-29T01:30:08;20.10;99.90
22337;DHT22;14992;50.844;4.418;2022-07-29T01:32:56;20.10;99.90
22337;DHT22;14992;50.844;4.418;2022-07-29T01:35:54;19.90;99.90
22337;DHT22;14992;50.844;4.418;2022-07-29T01:39:07;19.90;99.90
22337;DHT22;14992;50.844;4.418;2022-07-29T01:42:08;20.00;99.90
22337;DHT22;14992;50.844;4.418;2022-07-29T01:44:57;20.10;99.90
22337;DHT22;14992;50.844;4.418;2022-07-29T01:47:52;20.10;99.90
22337;DHT22;14992;50.844;4.418;2022-07-29T01:50:38;19.90;99.90
22337;DHT22;14992;50.844;4.418;2022-07-29T01:53:31;19.90;99.90
22337;DHT22;14992;50.844;4.418;2022-07-29T01:56:17;19.80;99.90
22337;DHT22;14992;50.844;4.418;2022-07-29T01:59:00;20.00;99.90
22337;DHT22;14992;50.844;4.418;2022-07-29T02:01:53;19.90;99.90
22337;DHT22;14992;50.844;4.418;2022-07-29T02:04:50;19.80;99.90
22337;DHT22;14992;50.844;4.418;2022-07-29T02:07:34;19.90;99.90
22337;DHT22;14992;50.844;4.418;2022-07-29T02:10:32;19.70;99.90
22337;DHT22;14992;50.844;4.418;2022-07-29T02:13:09;19.50;99.90
22337;DHT22;14992;50.844;4.418;2022-07-29T02:16:07;19.50;99.90
22337;DHT22;14992;50.844;4.418;2022-07-29T02:18:45;19.30;99.90
22337;DHT22;14992;50.844;4.418;2022-07-29T02:21:45;19.40;99.90
22337;DHT22;14992;50.844;4.418;2022-07-29T02:24:28;19.30;99.90
22337;DHT22;14992;50.844;4.418;2022-07-29T02:27:19;19.40;99.90
22337;DHT22;14992;50.844;4.418;2022-07-29T02:30:02;19.30;99.90
22337;DHT22;14992;50.844;4.418;2022-07-29T02:32:52;19.30;99.90
22337;DHT22;14992;50.844;4.418;2022-07-29T02:35:42;19.50;99.90
22337;DHT22;14992;50.844;4.418;2022-07-29T02:38:41;19.60;99.90
22337;DHT22;14992;50.844;4.418;2022-07-29T02:41:29;19.40;99.90
22337;DHT22;14992;50.844;4.418;2022-07-29T02:44:25;19.40;99.90
22337;DHT22;14992;50.844;4.418;2022-07-29T02:47:13;19.30;99.90
22337;DHT22;14992;50.844;4.418;2022-07-29T02:50:26;19.30;99.90
22337;DHT22;14992;50.844;4.418;2022-07-29T02:53:08;19.40;99.90
22337;DHT22;14992;50.844;4.418;2022-07-29T02:56:13;19.40;99.90
22337;DHT22;14992;50.844;4.418;2022-07-29T02:58:53;19.20;99.90
22337;DHT22;14992;50.844;4.418;2022-07-29T03:01:49;19.10;99.90
22337;DHT22;14992;50.844;4.418;2022-07-29T03:04:46;19.20;99.90
22337;DHT22;14992;50.844;4.418;2022-07-29T03:07:22;19.20;99.90
22337;DHT22;14992;50.844;4.418;2022-07-29T03:10:18;19.10;99.90
22337;DHT22;14992;50.844;4.418;2022-07-29T03:13:01;19.00;99.90
22337;DHT22;14992;50.844;4.418;2022-07-29T03:15:57;18.90;99.90
22337;DHT22;14992;50.844;4.418;2022-07-29T03:18:38;19.10;99.90
22337;DHT22;14992;50.844;4.418;2022-07-29T03:21:34;19.00;99.90
22337;DHT22;14992;50.844;4.418;2022-07-29T03:24:26;19.10;99.90
22337;DHT22;14992;50.844;4.418;2022-07-29T03:27:15;19.00;99.90
22337;DHT22;14992;50.844;4.418;2022-07-29T03:29:57;19.10;99.90
22337;DHT22;14992;50.844;4.418;2022-07-29T03:32:48;19.10;99.90
22337;DHT22;14992;50.844;4.418;2022-07-29T03:35:38;19.10;99.90
22337;DHT22;14992;50.844;4.418;2022-07-29T03:38:25;19.20;99.90
22337;DHT22;14992;50.844;4.418;2022-07-29T03:41:17;19.20;99.90
22337;DHT22;14992;50.844;4.418;2022-07-29T03:44:00;19.20;99.90
22337;DHT22;14992;50.844;4.418;2022-07-29T03:46:50;18.90;99.90
22337;DHT22;14992;50.844;4.418;2022-07-29T03:49:49;18.80;99.90
22337;DHT22;14992;50.844;4.418;2022-07-29T03:52:24;18.90;99.90
22337;DHT22;14992;50.844;4.418;2022-07-29T03:55:19;18.90;99.90
22337;DHT22;14992;50.844;4.418;2022-07-29T03:58:14;19.00;99.90
22337;DHT22;14992;50.844;4.418;2022-07-29T04:01:04;18.90;99.90
22337;DHT22;14992;50.844;4.418;2022-07-29T04:03:48;18.50;99.90
22337;DHT22;14992;50.844;4.418;2022-07-29T04:06:40;18.60;99.90
22337;DHT22;14992;50.844;4.418;2022-07-29T04:09:35;18.80;99.90
22337;DHT22;14992;50.844;4.418;2022-07-29T04:12:16;18.90;99.90
22337;DHT22;14992;50.844;4.418;2022-07-29T04:15:12;19.00;99.90
22337;DHT22;14992;50.844;4.418;2022-07-29T04:17:53;18.90;99.90
22337;DHT22;14992;50.844;4.418;2022-07-29T04:20:51;18.90;99.90
22337;DHT22;14992;50.844;4.418;2022-07-29T04:23:25;18.80;99.90
22337;DHT22;14992;50.844;4.418;2022-07-29T04:26:33;19.00;99.90
22337;DHT22;14992;50.844;4.418;2022-07-29T04:29:15;18.90;99.90
22337;DHT22;14992;50.844;4.418;2022-07-29T04:32:05;18.90;99.90
22337;DHT22;14992;50.844;4.418;2022-07-29T04:34:53;18.60;99.90
22337;DHT22;14992;50.844;4.418;2022-07-29T04:37:49;18.70;99.90
22337;DHT22;14992;50.844;4.418;2022-07-29T04:40:31;18.70;99.90
22337;DHT22;14992;50.844;4.418;2022-07-29T04:43:20;18.80;99.90
22337;DHT22;14992;50.844;4.418;2022-07-29T04:46:09;18.70;99.90
22337;DHT22;14992;50.844;4.418;2022-07-29T04:48:58;18.70;99.90
22337;DHT22;14992;50.844;4.418;2022-07-29T04:51:46;18.70;99.90
22337;DHT22;14992;50.844;4.418;2022-07-29T04:54:42;18.80;99.90
22337;DHT22;14992;50.844;4.418;2022-07-29T04:57:24;19.00;99.90
22337;DHT22;14992;50.844;4.418;2022-07-29T05:00:20;18.90;99.90
22337;DHT22;14992;50.844;4.418;2022-07-29T05:03:06;18.90;99.90
22337;DHT22;14992;50.844;4.418;2022-07-29T05:06:02;18.90;99.90
22337;DHT22;14992;50.844;4.418;2022-07-29T05:08:43;19.00;99.90
22337;DHT22;14992;50.844;4.418;2022-07-29T05:11:40;18.90;99.90
22337;DHT22;14992;50.844;4.418;2022-07-29T05:14:22;18.90;99.90
22337;DHT22;14992;50.844;4.418;2022-07-29T05:17:11;18.90;99.90
22337;DHT22;14992;50.844;4.418;2022-07-29T05:19:52;19.00;99.90
22337;DHT22;14992;50.844;4.418;2022-07-29T05:22:41;18.80;99.90
22337;DHT22;14992;50.844;4.418;2022-07-29T05:25:22;18.80;99.90
22337;DHT22;14992;50.844;4.418;2022-07-29T05:28:24;18.80;99.90
22337;DHT22;14992;50.844;4.418;2022-07-29T05:31:06;18.90;99.90
22337;DHT22;14992;50.844;4.418;2022-07-29T05:33:55;19.10;99.90
22337;DHT22;14992;50.844;4.418;2022-07-29T05:36:43;19.10;99.90
22337;DHT22;14992;50.844;4.418;2022-07-29T05:39:38;19.10;99.90
22337;DHT22;14992;50.844;4.418;2022-07-29T05:42:24;19.20;99.90
22337;DHT22;14992;50.844;4.418;2022-07-29T05:45:20;19.20;99.90
22337;DHT22;14992;50.844;4.418;2022-07-29T05:48:03;19.40;99.90
22337;DHT22;14992;50.844;4.418;2022-07-29T05:50:58;19.60;99.90
22337;DHT22;14992;50.844;4.418;2022-07-29T05:53:39;19.60;99.90
22337;DHT22;14992;50.844;4.418;2022-07-29T05:56:28;19.50;99.90
22337;DHT22;14992;50.844;4.418;2022-07-29T05:59:23;19.40;99.90
22337;DHT22;14992;50.844;4.418;2022-07-29T06:02:04;19.50;99.90
22337;DHT22;14992;50.844;4.418;2022-07-29T06:04:59;19.40;99.90
22337;DHT22;14992;50.844;4.418;2022-07-29T06:07:34;19.40;99.90
22337;DHT22;14992;50.844;4.418;2022-07-29T06:10:31;19.40;99.90
22337;DHT22;14992;50.844;4.418;2022-07-29T06:13:12;19.40;99.90
22337;DHT22;14992;50.844;4.418;2022-07-29T06:16:08;19.40;99.90
22337;DHT22;14992;50.844;4.418;2022-07-29T06:19:03;19.40;99.90
22337;DHT22;14992;50.844;4.418;2022-07-29T06:21:59;19.40;99.90
22337;DHT22;14992;50.844;4.418;2022-07-29T06:24:47;19.50;99.90
22337;DHT22;14992;50.844;4.418;2022-07-29T06:27:29;19.50;99.90
22337;DHT22;14992;50.844;4.418;2022-07-29T06:30:18;19.70;99.90
22337;DHT22;14992;50.844;4.418;2022-07-29T06:33:00;19.70;99.90
22337;DHT22;14992;50.844;4.418;2022-07-29T06:35:50;19.40;99.90
22337;DHT22;14992;50.844;4.418;2022-07-29T06:38:46;19.70;99.90
22337;DHT22;14992;50.844;4.418;2022-07-29T06:41:28;19.60;99.90
22337;DHT22;14992;50.844;4.418;2022-07-29T06:44:24;19.80;99.90
22337;DHT22;14992;50.844;4.418;2022-07-29T06:47:07;19.70;99.90
22337;DHT22;14992;50.844;4.418;2022-07-29T06:50:03;19.80;99.90
22337;DHT22;14992;50.844;4.418;2022-07-29T06:52:46;19.70;99.90
22337;DHT22;14992;50.844;4.418;2022-07-29T06:55:42;20.00;99.90
22337;DHT22;14992;50.844;4.418;2022-07-29T06:58:23;20.00;99.90
22337;DHT22;14992;50.844;4.418;2022-07-29T07:01:18;20.20;99.90
22337;DHT22;14992;50.844;4.418;2022-07-29T07:03:59;20.10;99.90
22337;DHT22;14992;50.844;4.418;2022-07-29T07:06:56;20.40;99.90
22337;DHT22;14992;50.844;4.418;2022-07-29T07:09:39;20.10;99.90
22337;DHT22;14992;50.844;4.418;2022-07-29T07:12:27;20.50;99.90
22337;DHT22;14992;50.844;4.418;2022-07-29T07:15:15;20.50;99.90
22337;DHT22;14992;50.844;4.418;2022-07-29T07:18:12;20.80;99.90
22337;DHT22;14992;50.844;4.418;2022-07-29T07:21:01;21.20;99.90
22337;DHT22;14992;50.844;4.418;2022-07-29T07:23:51;21.70;99.90
22337;DHT22;14992;50.844;4.418;2022-07-29T07:26:42;21.80;99.90
22337;DHT22;14992;50.844;4.418;2022-07-29T07:29:38;21.90;99.90
22337;DHT22;14992;50.844;4.418;2022-07-29T07:32:19;21.60;99.90
22337;DHT22;14992;50.844;4.418;2022-07-29T07:35:14;21.50;99.90
22337;DHT22;14992;50.844;4.418;2022-07-29T07:38:09;21.50;99.90
22337;DHT22;14992;50.844;4.418;2022-07-29T07:41:06;21.50;99.90
22337;DHT22;14992;50.844;4.418;2022-07-29T07:43:58;21.40;99.90
22337;DHT22;14992;50.844;4.418;2022-07-29T07:46:55;21.40;99.90
22337;DHT22;14992;50.844;4.418;2022-07-29T07:49:44;21.10;99.90
22337;DHT22;14992;50.844;4.418;2022-07-29T07:52:33;21.00;99.90
22337;DHT22;14992;50.844;4.418;2022-07-29T07:55:14;21.30;99.90
22337;DHT22;14992;50.844;4.418;2022-07-29T07:58:03;20.80;99.90
22337;DHT22;14992;50.844;4.418;2022-07-29T08:00:47;20.70;99.90
22337;DHT22;14992;50.844;4.418;2022-07-29T08:03:35;20.70;99.90
22337;DHT22;14992;50.844;4.418;2022-07-29T08:06:16;20.60;99.90
22337;DHT22;14992;50.844;4.418;2022-07-29T08:09:05;21.00;99.90
22337;DHT22;14992;50.844;4.418;2022-07-29T08:12:03;21.20;99.90
22337;DHT22;14992;50.844;4.418;2022-07-29T08:14:58;21.20;99.90
22337;DHT22;14992;50.844;4.418;2022-07-29T08:17:42;21.20;99.90
22337;DHT22;14992;50.844;4.418;2022-07-29T08:20:37;21.20;99.90
22337;DHT22;14992;50.844;4.418;2022-07-29T08:23:18;21.10;99.90
22337;DHT22;14992;50.844;4.418;2022-07-29T08:26:28;21.10;99.90
22337;DHT22;14992;50.844;4.418;2022-07-29T08:29:09;21.20;99.90
22337;DHT22;14992;50.844;4.418;2022-07-29T08:31:59;21.30;99.90
22337;DHT22;14992;50.844;4.418;2022-07-29T08:34:48;21.70;99.90
22337;DHT22;14992;50.844;4.418;2022-07-29T08:37:44;21.80;99.90
22337;DHT22;14992;50.844;4.418;2022-07-29T08:40:25;21.80;99.90
22337;DHT22;14992;50.844;4.418;2022-07-29T08:43:14;21.70;99.90
22337;DHT22;14992;50.844;4.418;2022-07-29T08:45:56;21.90;99.90
22337;DHT22;14992;50.844;4.418;2022-07-29T08:48:46;21.90;99.90
22337;DHT22;14992;50.844;4.418;2022-07-29T08:51:29;22.30;99.90
22337;DHT22;14992;50.844;4.418;2022-07-29T08:54:28;22.40;99.90
22337;DHT22;14992;50.844;4.418;2022-07-29T08:57:14;22.50;99.90
22337;DHT22;14992;50.844;4.418;2022-07-29T09:00:11;22.40;99.90
22337;DHT22;14992;50.844;4.418;2022-07-29T09:02:59;22.70;99.90
22337;DHT22;14992;50.844;4.418;2022-07-29T09:05:55;22.70;99.90
22337;DHT22;14992;50.844;4.418;2022-07-29T09:08:38;22.70;99.90
22337;DHT22;14992;50.844;4.418;2022-07-29T09:11:33;23.00;99.90
22337;DHT22;14992;50.844;4.418;2022-07-29T09:14:14;23.10;99.90
22337;DHT22;14992;50.844;4.418;2022-07-29T09:17:03;23.30;99.90
22337;DHT22;14992;50.844;4.418;2022-07-29T09:19:44;23.20;99.90
22337;DHT22;14992;50.844;4.418;2022-07-29T09:22:33;23.10;99.90
22337;DHT22;14992;50.844;4.418;2022-07-29T09:25:32;23.00;99.90
22337;DHT22;14992;50.844;4.418;2022-07-29T09:28:20;23.00;99.90
22337;DHT22;14992;50.844;4.418;2022-07-29T09:31:01;22.90;99.90
22337;DHT22;14992;50.844;4.418;2022-07-29T09:33:50;23.20;99.90
22337;DHT22;14992;50.844;4.418;2022-07-29T09:36:41;23.30;99.90
22337;DHT22;14992;50.844;4.418;2022-07-29T09:39:39;23.50;99.90
22337;DHT22;14992;50.844;4.418;2022-07-29T09:42:29;23.60;99.90
22337;DHT22;14992;50.844;4.418;2022-07-29T09:45:28;23.50;99.90
22337;DHT22;14992;50.844;4.418;2022-07-29T09:48:14;23.60;99.90
22337;DHT22;14992;50.844;4.418;2022-07-29T09:51:02;23.50;99.90
22337;DHT22;14992;50.844;4.418;2022-07-29T09:53:50;23.80;99.90
22337;DHT22;14992;50.844;4.418;2022-07-29T09:56:41;23.60;99.90
22337;DHT22;14992;50.844;4.418;2022-07-29T09:59:38;23.70;99.90
22337;DHT22;14992;50.844;4.418;2022-07-29T10:02:24;23.60;99.90
22337;DHT22;14992;50.844;4.418;2022-07-29T10:05:23;23.70;99.90
22337;DHT22;14992;50.844;4.418;2022-07-29T10:08:10;23.70;99.90
22337;DHT22;14992;50.844;4.418;2022-07-29T10:11:11;23.70;99.90
22337;DHT22;14992;50.844;4.418;2022-07-29T10:13:53;24.10;99.90
22337;DHT22;14992;50.844;4.418;2022-07-29T10:16:50;24.30;99.90
22337;DHT22;14992;50.844;4.418;2022-07-29T10:19:39;24.30;99.90
22337;DHT22;14992;50.844;4.418;2022-07-29T10:22:22;24.50;99.90
22337;DHT22;14992;50.844;4.418;2022-07-29T10:25:32;24.50;99.90
22337;DHT22;14992;50.844;4.418;2022-07-29T10:28:18;24.40;99.90
22337;DHT22;14992;50.844;4.418;2022-07-29T10:31:09;24.30;99.90
22337;DHT22;14992;50.844;4.418;2022-07-29T10:34:01;24.50;99.90
22337;DHT22;14992;50.844;4.418;2022-07-29T10:36:59;24.40;99.90
22337;DHT22;14992;50.844;4.418;2022-07-29T10:40:05;24.80;99.90
22337;DHT22;14992;50.844;4.418;2022-07-29T10:43:21;24.80;99.90
22337;DHT22;14992;50.844;4.418;2022-07-29T10:46:17;24.80;99.90
22337;DHT22;14992;50.844;4.418;2022-07-29T10:49:10;24.80;99.90
22337;DHT22;14992;50.844;4.418;2022-07-29T10:52:07;24.80;99.90
22337;DHT22;14992;50.844;4.418;2022-07-29T10:54:49;25.20;99.10
22337;DHT22;14992;50.844;4.418;2022-07-29T10:57:39;25.20;99.10
22337;DHT22;14992;50.844;4.418;2022-07-29T11:00:31;25.10;98.90
22337;DHT22;14992;50.844;4.418;2022-07-29T11:03:42;25.20;98.60
22337;DHT22;14992;50.844;4.418;2022-07-29T11:07:07;25.30;97.00
22337;DHT22;14992;50.844;4.418;2022-07-29T11:10:24;25.20;96.60
22337;DHT22;14992;50.844;4.418;2022-07-29T11:13:06;25.10;96.40
22337;DHT22;14992;50.844;4.418;2022-07-29T11:16:01;25.00;96.90
22337;DHT22;14992;50.844;4.418;2022-07-29T11:19:21;25.20;94.50
22337;DHT22;14992;50.844;4.418;2022-07-29T11:22:34;25.30;94.50
22337;DHT22;14992;50.844;4.418;2022-07-29T11:25:30;25.20;94.30
22337;DHT22;14992;50.844;4.418;2022-07-29T11:28:24;25.40;93.10
22337;DHT22;14992;50.844;4.418;2022-07-29T11:31:16;25.30;93.50
22337;DHT22;14992;50.844;4.418;2022-07-29T11:34:24;25.40;93.10
22337;DHT22;14992;50.844;4.418;2022-07-29T11:37:23;25.70;93.60
22337;DHT22;14992;50.844;4.418;2022-07-29T11:40:23;26.00;92.90
22337;DHT22;14992;50.844;4.418;2022-07-29T11:43:04;25.90;92.40
22337;DHT22;14992;50.844;4.418;2022-07-29T11:46:00;25.70;92.90
22337;DHT22;14992;50.844;4.418;2022-07-29T11:48:43;25.80;92.50
22337;DHT22;14992;50.844;4.418;2022-07-29T11:51:38;25.80;91.00
22337;DHT22;14992;50.844;4.418;2022-07-29T11:54:24;25.50;91.50
22337;DHT22;14992;50.844;4.418;2022-07-29T11:57:35;25.60;92.00
22337;DHT22;14992;50.844;4.418;2022-07-29T12:00:39;26.00;91.10
22337;DHT22;14992;50.844;4.418;2022-07-29T12:03:28;25.90;91.40
22337;DHT22;14992;50.844;4.418;2022-07-29T12:06:14;26.30;91.00
22337;DHT22;14992;50.844;4.418;2022-07-29T12:09:07;26.40;91.00
22337;DHT22;14992;50.844;4.418;2022-07-29T12:11:57;26.30;91.10
22337;DHT22;14992;50.844;4.418;2022-07-29T12:14:53;26.40;90.90
22337;DHT22;14992;50.844;4.418;2022-07-29T12:17:35;26.50;90.80
22337;DHT22;14992;50.844;4.418;2022-07-29T12:20:32;26.70;89.40
22337;DHT22;14992;50.844;4.418;2022-07-29T12:23:08;26.80;88.50
22337;DHT22;14992;50.844;4.418;2022-07-29T12:26:08;26.60;90.50
22337;DHT22;14992;50.844;4.418;2022-07-29T12:28:54;26.50;90.10
22337;DHT22;14992;50.844;4.418;2022-07-29T12:32:01;26.60;90.00
22337;DHT22;14992;50.844;4.418;2022-07-29T12:34:52;26.90;88.60
22337;DHT22;14992;50.844;4.418;2022-07-29T12:37:41;26.90;88.80
22337;DHT22;14992;50.844;4.418;2022-07-29T12:40:24;27.00;87.80
22337;DHT22;14992;50.844;4.418;2022-07-29T12:43:14;27.00;88.40
22337;DHT22;14992;50.844;4.418;2022-07-29T12:45:57;26.90;88.50
22337;DHT22;14992;50.844;4.418;2022-07-29T12:48:51;26.80;87.70
22337;DHT22;14992;50.844;4.418;2022-07-29T12:51:34;26.70;87.80
22337;DHT22;14992;50.844;4.418;2022-07-29T12:54:29;26.80;87.60
22337;DHT22;14992;50.844;4.418;2022-07-29T12:57:05;26.70;88.20
22337;DHT22;14992;50.844;4.418;2022-07-29T13:00:06;26.70;84.60
22337;DHT22;14992;50.844;4.418;2022-07-29T13:02:55;26.70;85.30
22337;DHT22;14992;50.844;4.418;2022-07-29T13:05:47;26.70;85.80
22337;DHT22;14992;50.844;4.418;2022-07-29T13:08:29;26.70;85.10
22337;DHT22;14992;50.844;4.418;2022-07-29T13:11:29;27.20;82.90
22337;DHT22;14992;50.844;4.418;2022-07-29T13:14:12;27.40;82.20
22337;DHT22;14992;50.844;4.418;2022-07-29T13:17:10;27.40;83.70
22337;DHT22;14992;50.844;4.418;2022-07-29T13:19:53;27.20;83.10
22337;DHT22;14992;50.844;4.418;2022-07-29T13:22:53;27.00;83.90
22337;DHT22;14992;50.844;4.418;2022-07-29T13:25:36;26.90;84.10
22337;DHT22;14992;50.844;4.418;2022-07-29T13:28:31;26.90;83.40
22337;DHT22;14992;50.844;4.418;2022-07-29T13:31:07;26.80;84.30
22337;DHT22;14992;50.844;4.418;2022-07-29T13:34:02;26.90;83.70
22337;DHT22;14992;50.844;4.418;2022-07-29T13:36:57;26.60;83.90
22337;DHT22;14992;50.844;4.418;2022-07-29T13:39:54;26.90;82.90
22337;DHT22;14992;50.844;4.418;2022-07-29T13:42:49;26.90;82.80
22337;DHT22;14992;50.844;4.418;2022-07-29T13:45:30;26.90;83.00
22337;DHT22;14992;50.844;4.418;2022-07-29T13:48:25;26.90;82.90
22337;DHT22;14992;50.844;4.418;2022-07-29T13:51:06;27.00;82.90
22337;DHT22;14992;50.844;4.418;2022-07-29T13:54:01;27.10;82.60
22337;DHT22;14992;50.844;4.418;2022-07-29T13:56:44;27.20;81.90
22337;DHT22;14992;50.844;4.418;2022-07-29T13:59:32;27.30;82.50
22337;DHT22;14992;50.844;4.418;2022-07-29T14:02:13;27.50;82.40
22337;DHT22;14992;50.844;4.418;2022-07-29T14:05:06;27.30;82.70
22337;DHT22;14992;50.844;4.418;2022-07-29T14:07:55;27.40;82.20
22337;DHT22;14992;50.844;4.418;2022-07-29T14:10:37;27.40;81.20
22337;DHT22;14992;50.844;4.418;2022-07-29T14:13:27;27.40;80.40
22337;DHT22;14992;50.844;4.418;2022-07-29T14:16:09;27.20;79.90
22337;DHT22;14992;50.844;4.418;2022-07-29T14:18:58;27.10;80.70
22337;DHT22;14992;50.844;4.418;2022-07-29T14:21:53;27.20;81.40
22337;DHT22;14992;50.844;4.418;2022-07-29T14:24:36;27.30;78.90
22337;DHT22;14992;50.844;4.418;2022-07-29T14:27:31;27.60;78.60
22337;DHT22;14992;50.844;4.418;2022-07-29T14:30:16;27.40;79.00
22337;DHT22;14992;50.844;4.418;2022-07-29T14:33:11;27.20;79.00
22337;DHT22;14992;50.844;4.418;2022-07-29T14:35:53;27.10;79.60
22337;DHT22;14992;50.844;4.418;2022-07-29T14:38:48;27.10;79.00
22337;DHT22;14992;50.844;4.418;2022-07-29T14:41:29;27.10;79.00
22337;DHT22;14992;50.844;4.418;2022-07-29T14:44:24;27.00;78.90
22337;DHT22;14992;50.844;4.418;2022-07-29T14:47:07;27.10;79.70
22337;DHT22;14992;50.844;4.418;2022-07-29T14:49:55;27.10;78.40
22337;DHT22;14992;50.844;4.418;2022-07-29T14:52:36;27.30;78.60
22337;DHT22;14992;50.844;4.418;2022-07-29T14:55:24;27.30;78.10
22337;DHT22;14992;50.844;4.418;2022-07-29T14:58:06;27.40;78.00
22337;DHT22;14992;50.844;4.418;2022-07-29T15:00:55;27.30;78.00
22337;DHT22;14992;50.844;4.418;2022-07-29T15:03:39;27.00;79.70
22337;DHT22;14992;50.844;4.418;2022-07-29T15:06:27;27.00;79.90
22337;DHT22;14992;50.844;4.418;2022-07-29T15:09:09;27.00;80.30
22337;DHT22;14992;50.844;4.418;2022-07-29T15:12:04;27.00;79.90
22337;DHT22;14992;50.844;4.418;2022-07-29T15:14:46;27.00;79.40
22337;DHT22;14992;50.844;4.418;2022-07-29T15:17:42;27.10;79.90
22337;DHT22;14992;50.844;4.418;2022-07-29T15:20:25;27.00;80.60
22337;DHT22;14992;50.844;4.418;2022-07-29T15:23:20;26.90;80.90
22337;DHT22;14992;50.844;4.418;2022-07-29T15:26:02;27.10;80.40
22337;DHT22;14992;50.844;4.418;2022-07-29T15:28:57;27.20;79.70
22337;DHT22;14992;50.844;4.418;2022-07-29T15:31:38;27.20;79.50
22337;DHT22;14992;50.844;4.418;2022-07-29T15:34:27;27.30;80.20
22337;DHT22;14992;50.844;4.418;2022-07-29T15:37:16;27.10;80.90
22337;DHT22;14992;50.844;4.418;2022-07-29T15:40:28;27.40;79.70
22337;DHT22;14992;50.844;4.418;2022-07-29T15:43:09;27.60;79.30
22337;DHT22;14992;50.844;4.418;2022-07-29T15:45:58;27.70;78.20
22337;DHT22;14992;50.844;4.418;2022-07-29T15:49:06;27.70;77.80
22337;DHT22;14992;50.844;4.418;2022-07-29T15:52:04;27.70;78.10
22337;DHT22;14992;50.844;4.418;2022-07-29T15:54:47;27.70;77.30
22337;DHT22;14992;50.844;4.418;2022-07-29T15:57:42;27.80;77.40
22337;DHT22;14992;50.844;4.418;2022-07-29T16:00:23;27.70;76.40
22337;DHT22;14992;50.844;4.418;2022-07-29T16:03:18;27.60;76.80
22337;DHT22;14992;50.844;4.418;2022-07-29T16:05:59;27.70;75.00
22337;DHT22;14992;50.844;4.418;2022-07-29T16:08:54;27.80;76.70
22337;DHT22;14992;50.844;4.418;2022-07-29T16:11:37;27.90;75.50
22337;DHT22;14992;50.844;4.418;2022-07-29T16:14:25;28.10;75.00
22337;DHT22;14992;50.844;4.418;2022-07-29T16:17:06;28.30;75.20
22337;DHT22;14992;50.844;4.418;2022-07-29T16:19:55;28.20;75.30
22337;DHT22;14992;50.844;4.418;2022-07-29T16:22:36;28.10;75.90
22337;DHT22;14992;50.844;4.418;2022-07-29T16:25:25;28.00;76.50
22337;DHT22;14992;50.844;4.418;2022-07-29T16:28:28;28.10;74.20
22337;DHT22;14992;50.844;4.418;2022-07-29T16:31:17;28.40;72.70
22337;DHT22;14992;50.844;4.418;2022-07-29T16:33:59;28.70;73.50
22337;DHT22;14992;50.844;4.418;2022-07-29T16:36:54;28.60;73.60
22337;DHT22;14992;50.844;4.418;2022-07-29T16:39:49;28.40;75.20
22337;DHT22;14992;50.844;4.418;2022-07-29T16:42:44;28.30;76.00
22337;DHT22;14992;50.844;4.418;2022-07-29T16:45:27;28.40;76.50
22337;DHT22;14992;50.844;4.418;2022-07-29T16:48:25;28.40;75.70
22337;DHT22;14992;50.844;4.418;2022-07-29T16:51:07;28.60;75.00
22337;DHT22;14992;50.844;4.418;2022-07-29T16:54:02;28.60;75.60
22337;DHT22;14992;50.844;4.418;2022-07-29T16:56:43;28.60;74.80
22337;DHT22;14992;50.844;4.418;2022-07-29T16:59:32;28.40;75.50
22337;DHT22;14992;50.844;4.418;2022-07-29T17:02:17;28.40;75.50
22337;DHT22;14992;50.844;4.418;2022-07-29T17:05:06;28.40;76.30
22337;DHT22;14992;50.844;4.418;2022-07-29T17:07:47;28.60;74.90
22337;DHT22;14992;50.844;4.418;2022-07-29T17:10:36;28.40;75.70
22337;DHT22;14992;50.844;4.418;2022-07-29T17:13:18;28.20;76.20
22337;DHT22;14992;50.844;4.418;2022-07-29T17:16:06;28.10;76.30
22337;DHT22;14992;50.844;4.418;2022-07-29T17:18:51;28.30;75.70
22337;DHT22;14992;50.844;4.418;2022-07-29T17:21:39;28.40;75.60
22337;DHT22;14992;50.844;4.418;2022-07-29T17:24:21;28.90;74.60
22337;DHT22;14992;50.844;4.418;2022-07-29T17:27:17;29.40;73.90
22337;DHT22;14992;50.844;4.418;2022-07-29T17:29:58;30.10;72.30
22337;DHT22;14992;50.844;4.418;2022-07-29T17:32:54;30.60;70.70
22337;DHT22;14992;50.844;4.418;2022-07-29T17:35:31;30.60;70.10
22337;DHT22;14992;50.844;4.418;2022-07-29T17:38:43;30.10;71.50
22337;DHT22;14992;50.844;4.418;2022-07-29T17:41:26;29.60;72.20
22337;DHT22;14992;50.844;4.418;2022-07-29T17:44:21;28.90;73.50
22337;DHT22;14992;50.844;4.418;2022-07-29T17:47:03;28.70;74.20
22337;DHT22;14992;50.844;4.418;2022-07-29T17:49:55;28.50;74.90
22337;DHT22;14992;50.844;4.418;2022-07-29T17:52:52;28.10;76.60
22337;DHT22;14992;50.844;4.418;2022-07-29T17:55:42;27.80;78.50